createdAt,value
2023-01-17T00:02:47.816Z,97863.34
2023-01-17T00:06:08.920Z,97866.09
2023-01-17T00:09:31.251Z,97858.13
2023-01-17T00:12:36.590Z,97872.56
2023-01-17T00:15:40.191Z,97853.91
2023-01-17T00:19:03.143Z,97850.59
2023-01-17T00:22:29.017Z,97838.53
2023-01-17T00:25:58.255Z,97867.00
2023-01-17T00:29:00.917Z,97850.50
2023-01-17T00:32:03.962Z,97857.34
2023-01-17T00:35:08.073Z,97853.25
2023-01-17T00:38:13.970Z,97855.47
2023-01-17T00:41:16.663Z,97838.97
2023-01-17T00:44:38.166Z,97859.87
2023-01-17T00:47:59.201Z,97857.09
2023-01-17T00:51:22.260Z,97846.41
2023-01-17T00:54:43.476Z,97855.75
2023-01-17T00:58:04.982Z,97848.75
2023-01-17T01:01:27.913Z,97834.34
2023-01-17T01:04:50.104Z,97849.41
2023-01-17T01:08:11.621Z,97849.41
2023-01-17T01:11:36.120Z,97846.53
2023-01-17T01:14:57.691Z,97862.03
2023-01-17T01:18:27.140Z,97858.78
2023-01-17T01:21:48.690Z,97865.09
2023-01-17T01:25:10.693Z,97872.50
2023-01-17T01:28:34.382Z,97876.84
2023-01-17T01:31:56.422Z,97879.06
2023-01-17T01:34:59.301Z,97861.63
2023-01-17T01:38:03.000Z,97869.28
2023-01-17T01:41:06.513Z,97867.25
2023-01-17T01:44:47.233Z,97870.50
2023-01-17T01:47:54.089Z,97867.09
2023-01-17T01:50:57.190Z,97876.00
2023-01-17T01:54:07.578Z,97866.94
2023-01-17T01:57:15.458Z,97873.69
2023-01-17T02:00:24.944Z,97865.56
2023-01-17T02:03:33.427Z,97859.66
2023-01-17T02:06:41.836Z,97845.91
2023-01-17T02:09:45.203Z,97851.37
2023-01-17T02:12:48.235Z,97837.78
2023-01-17T02:16:09.595Z,97825.69
2023-01-17T02:19:53.799Z,97827.66
2023-01-17T02:23:18.228Z,97822.56
2023-01-17T02:26:31.429Z,97821.97
2023-01-17T02:30:03.405Z,97831.34
2023-01-17T02:33:08.631Z,97826.38
2023-01-17T02:36:23.764Z,97825.28
2023-01-17T02:39:37.537Z,97822.41
2023-01-17T02:42:50.301Z,97821.59
2023-01-17T02:45:52.880Z,97815.53
2023-01-17T02:48:57.879Z,97814.31
2023-01-17T02:52:19.190Z,97819.38
2023-01-17T02:55:41.123Z,97814.03
2023-01-17T02:59:03.450Z,97798.94
2023-01-17T03:02:41.758Z,97776.41
2023-01-17T03:06:11.870Z,97766.66
2023-01-17T03:09:17.298Z,97747.16
2023-01-17T03:12:21.445Z,97745.37
2023-01-17T03:15:24.698Z,97738.37
2023-01-17T03:18:27.677Z,97735.09
2023-01-17T03:21:30.923Z,97743.31
2023-01-17T03:24:33.452Z,97743.34
2023-01-17T03:27:36.529Z,97735.09
2023-01-17T03:30:39.511Z,97733.72
2023-01-17T03:33:42.547Z,97718.19
2023-01-17T03:37:05.368Z,97710.25
2023-01-17T03:40:30.785Z,97708.97
2023-01-17T03:43:34.595Z,97709.69
2023-01-17T03:46:37.961Z,97691.69
2023-01-17T03:49:40.818Z,97690.03
2023-01-17T03:52:43.760Z,97682.59
2023-01-17T03:55:47.018Z,97687.53
2023-01-17T03:58:49.949Z,97688.41
2023-01-17T04:01:52.603Z,97685.34
2023-01-17T04:04:55.555Z,97680.41
2023-01-17T04:07:58.447Z,97681.78
2023-01-17T04:11:01.383Z,97689.34
2023-01-17T04:14:04.109Z,97688.38
2023-01-17T04:17:10.744Z,97682.31
2023-01-17T04:20:26.994Z,97688.91
2023-01-17T04:23:32.741Z,97689.22
2023-01-17T04:26:35.478Z,97690.84
2023-01-17T04:29:38.374Z,97690.44
2023-01-17T04:32:41.658Z,97689.91
2023-01-17T04:35:45.692Z,97690.28
2023-01-17T04:38:48.346Z,97694.69
2023-01-17T04:41:57.887Z,97697.31
2023-01-17T04:45:26.021Z,97697.31
2023-01-17T04:48:31.428Z,97686.69
2023-01-17T04:51:34.348Z,97701.28
2023-01-17T04:54:37.929Z,97700.19
2023-01-17T04:57:44.633Z,97700.47
2023-01-17T05:00:56.010Z,97708.16
2023-01-17T05:04:02.431Z,97711.19
2023-01-17T05:07:07.018Z,97706.91
2023-01-17T05:10:13.265Z,97709.78
2023-01-17T05:13:18.552Z,97707.06
2023-01-17T05:16:21.117Z,97716.00
2023-01-17T05:19:25.433Z,97713.22
2023-01-17T05:22:28.574Z,97708.56
2023-01-17T05:25:33.576Z,97706.22
2023-01-17T05:28:39.959Z,97702.62
2023-01-17T05:31:42.868Z,97696.31
2023-01-17T05:34:45.385Z,97695.78
2023-01-17T05:37:49.804Z,97712.41
2023-01-17T05:40:52.965Z,97712.81
2023-01-17T05:43:55.854Z,97723.00
2023-01-17T05:46:58.576Z,97730.28
2023-01-17T05:50:01.383Z,97739.22
2023-01-17T05:53:07.281Z,97741.97
2023-01-17T05:56:10.084Z,97745.69
2023-01-17T05:59:14.175Z,97756.94
2023-01-17T06:02:17.602Z,97759.84
2023-01-17T06:05:22.108Z,97763.94
2023-01-17T06:08:29.424Z,97773.41
2023-01-17T06:11:35.667Z,97778.66
2023-01-17T06:14:39.007Z,97778.38
2023-01-17T06:17:42.214Z,97779.62
2023-01-17T06:20:45.760Z,97780.16
2023-01-17T06:23:49.663Z,97776.47
2023-01-17T06:26:52.171Z,97788.13
2023-01-17T06:29:55.341Z,97783.75
2023-01-17T06:32:58.240Z,97781.94
2023-01-17T06:36:05.719Z,97790.06
2023-01-17T06:39:10.229Z,97798.84
2023-01-17T06:42:14.170Z,97815.88
2023-01-17T06:45:17.193Z,97825.22
2023-01-17T06:48:20.125Z,97826.59
2023-01-17T06:51:22.766Z,97820.69
2023-01-17T06:54:25.781Z,97822.91
2023-01-17T06:57:28.919Z,97827.44
2023-01-17T07:00:35.277Z,97841.88
2023-01-17T07:03:38.337Z,97843.25
2023-01-17T07:06:41.130Z,97839.00
2023-01-17T07:09:44.118Z,97857.13
2023-01-17T07:12:47.135Z,97852.91
2023-01-17T07:15:49.940Z,97862.38
2023-01-17T07:18:54.777Z,97858.91
2023-01-17T07:21:57.675Z,97868.69
2023-01-17T07:25:02.090Z,97878.12
2023-01-17T07:28:04.836Z,97887.78
2023-01-17T07:31:08.414Z,97891.09
2023-01-17T07:34:11.577Z,97896.81
2023-01-17T07:37:15.459Z,97896.13
2023-01-17T07:40:20.045Z,97906.06
2023-01-17T07:43:23.202Z,97903.94
2023-01-17T07:46:25.814Z,97916.47
2023-01-17T07:49:28.688Z,97919.06
2023-01-17T07:52:31.537Z,97917.69
2023-01-17T07:55:37.567Z,97926.59
2023-01-17T07:58:40.333Z,97932.41
2023-01-17T08:01:46.368Z,97934.03
2023-01-17T08:04:49.891Z,97931.12
2023-01-17T08:07:52.442Z,97942.41
2023-01-17T08:10:55.889Z,97944.19
2023-01-17T08:13:59.541Z,97952.44
2023-01-17T08:17:08.151Z,97952.59
2023-01-17T08:20:11.089Z,97961.06
2023-01-17T08:23:14.056Z,97965.22
2023-01-17T08:26:22.302Z,97970.88
2023-01-17T08:29:25.423Z,97961.84
2023-01-17T08:32:28.217Z,97966.19
2023-01-17T08:35:31.553Z,97973.50
2023-01-17T08:38:34.139Z,97975.34
2023-01-17T08:41:37.151Z,97982.75
2023-01-17T08:44:40.093Z,97997.53
2023-01-17T08:47:43.236Z,97994.78
2023-01-17T08:50:46.311Z,97993.84
2023-01-17T08:53:49.142Z,97994.44
2023-01-17T08:56:54.124Z,97998.31
2023-01-17T08:59:57.082Z,98005.28
2023-01-17T09:02:59.835Z,98009.06
2023-01-17T09:06:03.687Z,98013.50
2023-01-17T09:09:07.381Z,98020.97
2023-01-17T09:12:10.751Z,98024.38
2023-01-17T09:15:17.799Z,98030.69
2023-01-17T09:18:21.807Z,98040.88
2023-01-17T09:21:25.598Z,98030.34
2023-01-17T09:24:28.970Z,98026.19
2023-01-17T09:27:31.688Z,98029.19
2023-01-17T09:30:34.676Z,98016.78
2023-01-17T09:33:42.705Z,98023.94
2023-01-17T09:36:46.120Z,98026.37
2023-01-17T09:39:48.860Z,98030.47
2023-01-17T09:42:55.537Z,98037.59
2023-01-17T09:45:59.405Z,98045.41
2023-01-17T09:49:26.786Z,98058.81
2023-01-17T09:52:30.920Z,98072.22
2023-01-17T09:55:44.301Z,98067.41
2023-01-17T09:58:52.488Z,98074.28
2023-01-17T10:02:19.167Z,98076.56
2023-01-17T10:05:31.254Z,98069.53
2023-01-17T10:08:45.377Z,98068.25
2023-01-17T10:12:12.984Z,98078.09
2023-01-17T10:15:33.434Z,98075.44
2023-01-17T10:19:19.124Z,98081.09
2023-01-17T10:22:43.521Z,98088.91
2023-01-17T10:25:52.396Z,98084.97
2023-01-17T10:29:01.621Z,98071.50
2023-01-17T10:32:04.801Z,98076.59
2023-01-17T10:35:26.996Z,98073.25
2023-01-17T10:38:35.000Z,98077.50
2023-01-17T10:41:42.468Z,98068.09
2023-01-17T10:45:28.397Z,98069.62
2023-01-17T10:48:33.919Z,98062.91
2023-01-17T10:51:43.961Z,98046.81
2023-01-17T10:55:08.759Z,98044.66
2023-01-17T10:58:13.094Z,98053.78
2023-01-17T11:01:24.006Z,98058.78
2023-01-17T11:04:35.878Z,98043.50
2023-01-17T11:07:40.045Z,98030.19
2023-01-17T11:10:55.551Z,98030.53
2023-01-17T11:14:01.413Z,98032.31
2023-01-17T11:17:06.988Z,98019.06
2023-01-17T11:20:34.004Z,98019.34
2023-01-17T11:23:43.246Z,98014.28
2023-01-17T11:26:49.571Z,98022.69
2023-01-17T11:30:16.058Z,97998.41
2023-01-17T11:33:48.080Z,97997.28
2023-01-17T11:37:09.704Z,97989.28
2023-01-17T11:40:15.575Z,97986.72
2023-01-17T11:43:26.379Z,97989.19
2023-01-17T11:46:29.923Z,97987.34
2023-01-17T11:49:32.965Z,97984.97
2023-01-17T11:52:39.155Z,97988.31
2023-01-17T11:55:53.883Z,98005.34
2023-01-17T11:59:37.524Z,98001.44
2023-01-17T12:02:50.134Z,98013.19
2023-01-17T12:06:02.603Z,98018.53
2023-01-17T12:09:24.080Z,98019.19
2023-01-17T12:12:51.472Z,98026.41
2023-01-17T12:16:00.352Z,98028.63
2023-01-17T12:19:28.504Z,98025.19
2023-01-17T12:22:58.035Z,98021.28
2023-01-17T12:26:19.823Z,98016.31
2023-01-17T12:29:41.553Z,98011.34
2023-01-17T12:32:50.259Z,98001.94
2023-01-17T12:35:59.094Z,98003.91
2023-01-17T12:39:07.867Z,98009.25
2023-01-17T12:42:24.239Z,98007.91
2023-01-17T12:45:44.510Z,98024.31
2023-01-17T12:48:52.519Z,98019.72
2023-01-17T12:52:05.889Z,98003.28
2023-01-17T12:55:25.873Z,98008.88
2023-01-17T12:58:47.742Z,98009.53
2023-01-17T13:01:58.207Z,97999.91
2023-01-17T13:05:15.317Z,98006.34
2023-01-17T13:08:36.628Z,98004.59
2023-01-17T13:11:53.218Z,98005.00
2023-01-17T13:15:37.836Z,98000.12
2023-01-17T13:19:37.909Z,98007.53
2023-01-17T13:23:44.169Z,98018.16
2023-01-17T13:27:14.143Z,98027.87
2023-01-17T13:30:50.374Z,98030.19
2023-01-17T13:34:25.931Z,98028.94
2023-01-17T13:38:21.894Z,98016.16
2023-01-17T13:41:59.920Z,98009.63
2023-01-17T13:49:42.380Z,97992.97
2023-01-17T13:52:46.480Z,97985.56
2023-01-17T13:55:53.583Z,97980.75
2023-01-17T13:59:02.181Z,97979.16
2023-01-17T14:02:43.403Z,97972.94
2023-01-17T14:05:49.276Z,97965.44
2023-01-17T14:08:52.785Z,97950.44
2023-01-17T14:12:04.632Z,97944.47
2023-01-17T14:15:21.124Z,97924.53
2023-01-17T14:18:45.756Z,97910.72
2023-01-17T14:22:31.541Z,97910.66
2023-01-17T14:25:41.463Z,97897.75
2023-01-17T14:28:46.643Z,97893.81
2023-01-17T14:31:50.408Z,97886.16
2023-01-17T14:34:57.200Z,97879.19
2023-01-17T14:38:03.320Z,97875.94
2023-01-17T14:41:09.721Z,97871.78
2023-01-17T14:44:15.106Z,97865.16
2023-01-17T14:47:17.890Z,97868.19
2023-01-17T14:50:38.404Z,97864.97
2023-01-17T14:54:08.297Z,97861.31
2023-01-17T14:57:35.578Z,97848.88
2023-01-17T15:01:15.711Z,97840.75
2023-01-17T15:04:40.078Z,97848.03
2023-01-17T15:07:54.038Z,97856.97
2023-01-17T15:11:05.437Z,97849.94
2023-01-17T15:14:08.440Z,97853.97
2023-01-17T15:17:24.501Z,97860.44
2023-01-17T15:20:40.382Z,97866.75
2023-01-17T15:24:37.415Z,97847.91
2023-01-17T15:27:43.135Z,97841.41
2023-01-17T15:31:04.475Z,97843.22
2023-01-17T15:34:14.610Z,97827.69
2023-01-17T15:37:39.883Z,97836.09
2023-01-17T15:40:43.761Z,97831.22
2023-01-17T15:43:50.235Z,97834.50
2023-01-17T15:46:56.780Z,97823.31
2023-01-17T15:50:01.287Z,97808.63
2023-01-17T15:53:07.127Z,97796.50
2023-01-17T15:56:33.557Z,97804.75
2023-01-17T15:59:45.571Z,97796.47
2023-01-17T16:02:58.989Z,97793.13
2023-01-17T16:10:35.828Z,97789.06
2023-01-17T16:17:54.275Z,97782.13
2023-01-17T16:21:01.595Z,97801.78
2023-01-17T16:24:09.701Z,97803.69
2023-01-17T16:31:53.798Z,97780.91
2023-01-17T16:35:15.091Z,97772.72
2023-01-17T16:38:21.577Z,97768.00
2023-01-17T16:41:28.045Z,97768.69
2023-01-17T16:44:33.603Z,97761.16
2023-01-17T16:47:37.245Z,97762.44
2023-01-17T16:50:50.880Z,97764.91
2023-01-17T16:53:53.892Z,97746.81
2023-01-17T16:56:56.392Z,97744.75
2023-01-17T16:59:59.752Z,97742.22
2023-01-17T17:03:02.454Z,97737.50
2023-01-17T17:06:05.611Z,97727.31
2023-01-17T17:09:08.423Z,97740.03
2023-01-17T17:12:11.793Z,97731.50
2023-01-17T17:15:15.239Z,97728.09
2023-01-17T17:18:18.480Z,97715.03
2023-01-17T17:21:21.088Z,97707.06
2023-01-17T17:24:23.847Z,97699.41
2023-01-17T17:27:27.865Z,97685.09
2023-01-17T17:30:31.673Z,97692.19
2023-01-17T17:33:35.370Z,97679.81
2023-01-17T17:36:42.719Z,97667.84
2023-01-17T17:39:45.342Z,97660.00
2023-01-17T17:42:48.892Z,97667.84
2023-01-17T17:45:51.483Z,97656.44
2023-01-17T17:48:55.554Z,97650.69
2023-01-17T17:52:06.930Z,97629.78
2023-01-17T17:55:11.055Z,97604.91
2023-01-17T17:58:13.785Z,97601.06
2023-01-17T18:01:16.921Z,97594.44
2023-01-17T18:04:22.201Z,97582.84
2023-01-17T18:07:24.735Z,97577.78
2023-01-17T18:10:28.259Z,97561.25
2023-01-17T18:13:32.776Z,97569.09
2023-01-17T18:16:41.634Z,97540.00
2023-01-17T18:19:51.010Z,97512.19
2023-01-17T18:23:14.729Z,97500.72
2023-01-17T18:26:26.272Z,97492.94
2023-01-17T18:29:29.200Z,97480.84
2023-01-17T18:32:32.470Z,97490.47
2023-01-17T18:35:35.407Z,97500.72
2023-01-17T18:38:39.885Z,97489.28
2023-01-17T18:41:43.698Z,97482.19
2023-01-17T18:45:05.923Z,97486.53
2023-01-17T18:48:09.149Z,97475.47
2023-01-17T18:51:15.069Z,97471.72
2023-01-17T18:54:19.576Z,97465.16
2023-01-17T18:57:22.174Z,97462.25
2023-01-17T19:00:25.711Z,97467.62
2023-01-17T19:03:31.716Z,97443.50
2023-01-17T19:06:37.814Z,97452.25
2023-01-17T19:09:40.690Z,97435.06
2023-01-17T19:12:49.948Z,97425.28
2023-01-17T19:15:53.321Z,97390.97
2023-01-17T19:19:01.731Z,97387.09
2023-01-17T19:22:05.105Z,97380.41
2023-01-17T19:28:37.830Z,97394.97
2023-01-17T19:52:44.718Z,97362.19
2023-01-17T19:55:50.324Z,97348.97
2023-01-17T19:58:54.345Z,97341.59
2023-01-17T20:02:01.087Z,97332.72
2023-01-17T20:05:04.836Z,97313.25
2023-01-17T20:08:09.831Z,97308.03
2023-01-17T20:11:22.223Z,97309.50
2023-01-17T20:14:26.896Z,97284.50
2023-01-17T20:17:29.991Z,97268.16
2023-01-17T20:20:34.312Z,97248.53
2023-01-17T20:23:39.725Z,97275.19
2023-01-17T20:26:44.191Z,97290.19
2023-01-17T20:29:50.144Z,97297.13
2023-01-17T20:32:52.932Z,97288.75
2023-01-17T20:36:10.227Z,97292.84
2023-01-17T20:40:15.907Z,97314.03
2023-01-17T20:43:30.489Z,97316.25
2023-01-17T20:46:40.618Z,97296.41
2023-01-17T20:49:46.337Z,97276.16
2023-01-17T20:52:50.020Z,97279.56
2023-01-17T20:55:58.594Z,97271.13
2023-01-17T20:59:04.117Z,97275.69
2023-01-17T21:02:10.728Z,97272.72
2023-01-17T21:05:14.661Z,97266.44
2023-01-17T21:08:18.702Z,97261.94
2023-01-17T21:11:24.692Z,97242.75
2023-01-17T21:14:28.935Z,97223.41
2023-01-17T21:17:33.740Z,97210.94
2023-01-17T21:20:37.820Z,97200.88
2023-01-17T21:23:43.474Z,97198.75
2023-01-17T21:26:46.462Z,97205.09
2023-01-17T21:29:49.651Z,97202.28
2023-01-17T21:32:52.189Z,97190.72
2023-01-17T21:35:55.281Z,97191.62
2023-01-17T21:38:59.393Z,97184.22
2023-01-17T21:42:02.341Z,97180.06
2023-01-17T21:45:05.226Z,97145.84
2023-01-17T21:48:14.654Z,97125.94
2023-01-17T21:51:17.699Z,97145.41
2023-01-17T21:55:00.898Z,97153.47
2023-01-17T21:58:22.230Z,97153.06
2023-01-17T22:01:29.169Z,97167.53
2023-01-17T22:04:34.485Z,97154.50
2023-01-17T22:07:38.943Z,97145.56
2023-01-17T22:10:45.440Z,97137.19
2023-01-17T22:13:48.128Z,97132.28
2023-01-17T22:16:52.549Z,97140.56
2023-01-17T22:20:00.922Z,97145.41
2023-01-17T22:23:06.827Z,97149.59
2023-01-17T22:26:16.143Z,97115.66
2023-01-17T22:29:20.698Z,97107.03
2023-01-17T22:32:23.797Z,97120.91
2023-01-17T22:35:29.763Z,97115.53
2023-01-17T22:38:37.720Z,97127.44
2023-01-17T22:41:43.505Z,97121.91
2023-01-17T22:44:47.754Z,97130.34
2023-01-17T22:47:58.302Z,97147.47
2023-01-17T22:51:11.402Z,97153.16
2023-01-17T22:54:19.561Z,97143.41
2023-01-17T22:57:23.439Z,97145.41
2023-01-17T23:09:53.597Z,97140.69
2023-01-17T23:12:56.847Z,97155.31
2023-01-17T23:16:23.525Z,97162.88
2023-01-17T23:19:28.819Z,97166.66
2023-01-17T23:22:32.018Z,97181.84
2023-01-17T23:25:37.521Z,97180.69
2023-01-17T23:28:40.151Z,97181.94
2023-01-17T23:31:43.062Z,97203.22
2023-01-17T23:34:47.757Z,97196.91
2023-01-17T23:38:09.137Z,97200.03
2023-01-17T23:41:30.119Z,97193.03
2023-01-17T23:44:33.170Z,97189.34
2023-01-17T23:47:35.708Z,97196.00
2023-01-17T23:50:41.558Z,97185.31
2023-01-17T23:53:44.217Z,97183.75
2023-01-17T23:56:47.083Z,97198.38
2023-01-17T23:59:49.596Z,97202.81
